Apple Creek, Missouri
Current Conditions -  °F | °C
As of 8:53 PM on Monday 22 Dec 2014 (Local Time) from KCGI Reporting Station
Light Rain Light Rain  
Wind Chill: 53°   Ceiling: 700
Heat Index: 53°   Visibility: 8mi
Dew Point: 52°   Wind: 13mph
Humidity: 96%   Direction: 190°S
Pressure: 29.6"   Gusts: NA
Location:  37.5321°N, 89.7536°W
Report Text: KCGI 230253Z 19011KT 8SM -RA BKN007 OVC012 12/11 A2960 RMK AO2 RAB36 SLP024 P0004 60012 T01170111 53002
Loading
Personal Weather Stations






























Interactive Weather Map New forecast layout! Learn more

10-Day Weather Forecast

Advertisements
Track Severe Weather on mobile